Time;durP1;ratioP1;P1;durP2;ratioP2;P2;SDS_P1;SDS_P2;PMS_P1;PMS_P2;Temp;Humidity;BMP_temperature;BMP_pressure;BME280_temperature;BME280_humidity;BME280_pressure;Samples;Min_cycle;Max_cycle;Signal;HPM_P1;HPM_P2
2024/02/07 00:04:38;;;;;;;77.78;34.92;;;3.40;99.90;;;;;;20675717;28;21218;-43
2024/02/07 00:14:39;;;;;;;76.78;34.90;;;3.40;99.90;;;;;;20683611;28;20166;-41
2024/02/07 00:24:41;;;;;;;75.80;34.58;;;3.50;99.90;;;;;;20680618;28;20048;-42
2024/02/07 00:34:43;;;;;;;74.93;33.90;;;3.40;99.90;;;;;;20680323;28;20083;-42
2024/02/07 00:44:45;;;;;;;63.50;30.17;;;3.40;99.90;;;;;;20681800;28;20049;-43
2024/02/07 00:54:46;;;;;;;95.55;43.70;;;3.40;99.90;;;;;;20680234;28;20151;-42
2024/02/07 01:04:50;;;;;;;98.90;46.03;;;3.40;99.90;;;;;;20677953;28;20041;-41
2024/02/07 01:14:55;;;;;;;111.75;48.75;;;3.30;99.90;;;;;;20679306;28;20119;-42
2024/02/07 01:24:56;;;;;;;105.63;47.78;;;3.30;99.90;;;;;;20590317;28;20088;-42
2024/02/07 01:34:58;;;;;;;109.28;48.65;;;3.20;99.90;;;;;;20593587;28;20197;-42
2024/02/07 01:45:18;;;;;;;116.88;50.25;;;3.30;99.90;;;;;;20595410;28;20118;-43
2024/02/07 01:55:21;;;;;;;110.60;50.43;;;3.30;99.90;;;;;;20592463;28;20033;-42
2024/02/07 02:05:25;;;;;;;116.82;50.17;;;3.30;99.90;;;;;;20590851;28;21083;-41
2024/02/07 02:15:28;;;;;;;91.85;42.22;;;3.20;99.90;;;;;;20591395;28;20073;-42
2024/02/07 02:25:55;;;;;;;69.68;33.33;;;3.20;99.90;;;;;;20662826;28;20045;-41
2024/02/07 02:35:59;;;;;;;57.65;27.23;;;3.30;99.90;;;;;;20671868;28;21187;-43
2024/02/07 02:46:02;;;;;;;70.05;33.17;;;3.30;99.90;;;;;;20670330;28;21960;-45
2024/02/07 02:56:05;;;;;;;60.03;29.73;;;3.40;99.90;;;;;;20676554;28;20121;-42
2024/02/07 03:06:18;;;;;;;54.75;26.38;;;3.40;99.90;;;;;;20685742;28;20181;-43
2024/02/07 03:16:19;;;;;;;61.92;30.08;;;3.40;99.90;;;;;;20683712;28;20072;-41
2024/02/07 03:26:23;;;;;;;76.85;36.85;;;3.40;99.90;;;;;;20684513;28;20515;-43
2024/02/07 03:36:26;;;;;;;75.03;35.17;;;3.40;99.90;;;;;;20683816;28;20099;-41
2024/02/07 03:46:28;;;;;;;67.65;31.77;;;3.30;99.90;;;;;;20681877;28;20087;-42
2024/02/07 03:56:31;;;;;;;77.53;38.42;;;3.20;99.90;;;;;;20683483;28;21193;-45
2024/02/07 04:06:33;;;;;;;88.75;43.97;;;3.20;99.90;;;;;;20682759;28;20064;-42
2024/02/07 05:18:46;;;;;;;47.00;21.05;;;1.90;99.90;;;;;;20678291;28;21258;-41
2024/02/07 05:28:49;;;;;;;41.38;20.02;;;1.70;99.90;;;;;;20673848;28;20091;-40
2024/02/07 05:38:52;;;;;;;35.85;16.83;;;1.90;99.90;;;;;;20673798;28;20065;-41
2024/02/07 05:48:54;;;;;;;57.95;25.23;;;1.70;99.90;;;;;;20673845;28;20073;-41
2024/02/07 05:58:56;;;;;;;94.45;38.00;;;1.30;99.90;;;;;;20673306;28;20065;-41
2024/02/07 06:08:58;;;;;;;88.80;35.47;;;1.30;99.90;;;;;;20672365;28;21102;-45
2024/02/07 06:19:02;;;;;;;114.65;41.72;;;1.30;99.90;;;;;;20673722;28;20137;-42
2024/02/07 06:29:04;;;;;;;80.70;33.65;;;1.40;99.90;;;;;;20670443;28;20076;-44
2024/02/07 06:39:06;;;;;;;68.88;30.40;;;1.90;99.90;;;;;;20668945;28;20087;-42
2024/02/07 06:49:08;;;;;;;78.45;31.67;;;1.70;99.90;;;;;;20665236;28;20094;-41
2024/02/07 06:59:12;;;;;;;76.40;32.17;;;1.40;99.90;;;;;;20670329;28;20041;-41
2024/02/07 07:09:15;;;;;;;66.60;29.00;;;2.00;99.90;;;;;;20669539;28;20098;-41
2024/02/07 07:19:17;;;;;;;45.65;22.60;;;2.30;99.90;;;;;;20667481;28;20037;-43
2024/02/07 07:29:19;;;;;;;30.23;13.95;;;2.40;99.90;;;;;;20667652;28;20071;-42
2024/02/07 07:39:20;;;;;;;29.92;15.73;;;2.70;99.90;;;;;;20666170;28;21149;-43
2024/02/07 07:49:22;;;;;;;46.08;22.17;;;3.20;99.90;;;;;;20680809;28;20073;-42
2024/02/07 07:59:24;;;;;;;42.67;21.55;;;3.60;99.90;;;;;;20679040;28;20141;-43
2024/02/07 08:09:27;;;;;;;57.08;27.75;;;4.30;99.90;;;;;;20676004;28;20065;-42
2024/02/07 08:19:28;;;;;;;45.90;23.60;;;5.00;99.90;;;;;;20677150;28;20184;-42
2024/02/07 08:29:34;;;;;;;44.72;24.58;;;5.30;99.90;;;;;;20679268;28;20064;-43
2024/02/07 08:39:35;;;;;;;36.78;18.85;;;5.70;99.90;;;;;;20675395;28;20084;-42
2024/02/07 08:49:37;;;;;;;43.33;24.75;;;6.40;99.90;;;;;;20671910;28;21188;-46
2024/02/07 08:59:39;;;;;;;45.47;26.35;;;7.40;99.90;;;;;;20671636;28;21256;-44
2024/02/07 09:09:41;;;;;;;39.08;21.33;;;7.60;99.90;;;;;;20670992;28;21149;-44
2024/02/07 09:19:43;;;;;;;33.58;19.30;;;7.90;99.90;;;;;;20671528;28;20088;-46
2024/02/07 09:29:47;;;;;;;38.00;22.55;;;8.10;99.90;;;;;;20670189;28;20311;-43
2024/02/07 09:39:49;;;;;;;39.00;20.70;;;8.20;99.90;;;;;;20671593;28;20080;-43
2024/02/07 09:49:54;;;;;;;28.73;15.90;;;8.20;99.90;;;;;;20666033;28;20060;-45
2024/02/07 09:59:55;;;;;;;42.03;24.45;;;8.80;99.90;;;;;;20668281;28;20060;-42
2024/02/07 10:09:58;;;;;;;37.60;21.55;;;8.20;99.90;;;;;;20670007;28;20068;-42
2024/02/07 10:20:06;;;;;;;34.55;20.48;;;9.10;99.90;;;;;;20669269;28;20080;-42
2024/02/07 10:30:13;;;;;;;31.75;18.70;;;9.90;99.90;;;;;;20668488;28;20068;-43
2024/02/07 10:40:14;;;;;;;49.30;26.70;;;10.20;99.90;;;;;;20669109;28;20077;-41
2024/02/07 10:50:16;;;;;;;40.15;22.27;;;8.90;99.90;;;;;;20669067;28;20067;-41
2024/02/07 11:00:19;;;;;;;31.90;18.67;;;8.90;99.90;;;;;;20668168;28;20126;-42
2024/02/07 11:10:22;;;;;;;36.70;18.55;;;8.60;99.90;;;;;;20649333;28;20048;-42
2024/02/07 11:20:24;;;;;;;39.95;23.80;;;8.20;99.90;;;;;;20680577;28;20076;-44
2024/02/07 11:30:26;;;;;;;43.10;23.75;;;8.50;99.90;;;;;;20663713;28;20040;-42
2024/02/07 11:40:41;;;;;;;59.63;33.55;;;8.20;99.90;;;;;;20679966;28;20076;-42
2024/02/07 11:50:45;;;;;;;54.50;32.10;;;8.60;99.90;;;;;;20677631;28;21314;-43
2024/02/07 12:00:49;;;;;;;49.05;27.42;;;9.20;99.90;;;;;;20680500;28;20088;-43
2024/02/07 12:10:51;;;;;;;45.20;27.42;;;9.50;99.90;;;;;;20680277;28;20064;-43
2024/02/07 12:20:57;;;;;;;54.63;33.05;;;9.80;99.90;;;;;;20677804;28;20158;-43
2024/02/07 12:31:00;;;;;;;65.60;39.15;;;10.60;99.90;;;;;;20677682;28;20068;-42
2024/02/07 12:41:04;;;;;;;62.28;38.00;;;11.40;99.90;;;;;;20678046;28;20091;-43
2024/02/07 12:51:07;;;;;;;64.70;39.58;;;10.50;99.90;;;;;;20658556;28;20064;-43
2024/02/07 13:01:09;;;;;;;85.28;47.92;;;10.00;99.90;;;;;;20679163;28;20064;-42
2024/02/07 13:11:11;;;;;;;103.82;58.00;;;9.70;99.90;;;;;;20675247;28;20745;-42
2024/02/07 13:21:13;;;;;;;104.55;57.42;;;9.00;99.90;;;;;;20673670;28;20181;-43
2024/02/07 13:31:15;;;;;;;96.63;54.10;;;8.60;99.90;;;;;;20671830;28;20495;-43
2024/02/07 13:41:19;;;;;;;77.43;41.45;;;7.90;99.90;;;;;;20650464;28;20060;-42
2024/02/07 13:51:21;;;;;;;86.93;45.88;;;6.50;99.90;;;;;;20673206;28;20041;-40
2024/02/07 14:01:22;;;;;;;91.75;48.03;;;5.90;99.90;;;;;;20672410;28;20115;-41
2024/02/07 14:11:24;;;;;;;86.75;46.10;;;6.30;99.90;;;;;;20671535;28;20133;-41
2024/02/07 14:21:26;;;;;;;94.95;50.85;;;6.20;99.90;;;;;;20671079;28;20045;-42
2024/02/07 14:31:28;;;;;;;114.40;58.10;;;5.90;99.90;;;;;;20493215;28;20942;-42
2024/02/07 14:41:29;;;;;;;125.18;63.38;;;5.50;99.90;;;;;;20492304;28;20104;-41
2024/02/07 14:51:31;;;;;;;138.82;67.63;;;5.20;99.90;;;;;;20501670;28;20081;-40
2024/02/07 15:01:33;;;;;;;109.72;57.55;;;5.10;99.90;;;;;;20645486;28;20166;-44
2024/02/07 15:11:35;;;;;;;101.47;53.72;;;5.20;99.90;;;;;;20684032;28;20071;-41
2024/02/07 15:21:36;;;;;;;91.53;46.83;;;5.20;99.90;;;;;;20685712;28;20042;-41
2024/02/07 15:31:41;;;;;;;77.00;41.70;;;5.10;99.90;;;;;;20679022;28;20041;-43
2024/02/07 15:41:43;;;;;;;85.10;43.72;;;4.90;99.90;;;;;;20679424;28;20065;-42
2024/02/07 15:51:45;;;;;;;76.88;41.83;;;4.90;99.90;;;;;;20680446;28;20036;-43
2024/02/07 16:01:47;;;;;;;85.18;44.60;;;4.80;99.90;;;;;;20679929;28;21120;-42
2024/02/07 16:11:48;;;;;;;96.32;46.40;;;4.80;99.90;;;;;;20679429;28;20126;-42
2024/02/07 16:21:51;;;;;;;99.47;48.97;;;4.70;99.90;;;;;;20676818;28;20521;-41
2024/02/07 16:31:55;;;;;;;78.07;38.35;;;4.70;99.90;;;;;;20676710;28;20068;-42
2024/02/07 16:41:57;;;;;;;90.95;44.90;;;4.60;99.90;;;;;;20678487;28;20064;-42
2024/02/07 16:51:59;;;;;;;72.95;38.38;;;4.60;99.90;;;;;;20501709;28;21200;-42
2024/02/07 17:02:01;;;;;;;99.00;49.42;;;4.50;99.90;;;;;;20502160;28;21144;-43
2024/02/07 17:12:03;;;;;;;91.60;46.15;;;4.50;99.90;;;;;;20484548;28;20476;-42
2024/02/07 17:22:05;;;;;;;102.38;49.55;;;4.50;99.90;;;;;;20525151;28;20162;-42
2024/02/07 17:32:07;;;;;;;110.43;49.50;;;4.40;99.90;;;;;;20678800;28;20284;-43
2024/02/07 17:42:08;;;;;;;119.82;56.60;;;4.20;99.90;;;;;;20654512;28;21017;-42
2024/02/07 17:52:10;;;;;;;124.03;53.40;;;4.20;99.90;;;;;;20668983;28;20076;-42
2024/02/07 18:02:12;;;;;;;146.82;56.97;;;4.20;99.90;;;;;;20670608;28;20132;-43
2024/02/07 18:12:15;;;;;;;105.10;47.58;;;4.20;99.90;;;;;;20670307;28;20069;-42
2024/02/07 18:22:17;;;;;;;74.95;39.05;;;4.10;99.90;;;;;;20669625;28;20728;-42
2024/02/07 18:32:19;;;;;;;94.25;45.55;;;4.10;99.90;;;;;;20654162;28;20182;-45
2024/02/07 18:42:22;;;;;;;74.72;38.92;;;4.20;99.90;;;;;;20648091;28;21153;-42
2024/02/07 18:52:24;;;;;;;64.57;36.63;;;4.20;99.90;;;;;;20651745;28;20165;-42
2024/02/07 19:02:26;;;;;;;74.78;39.17;;;4.20;99.90;;;;;;20668415;28;20185;-44
2024/02/07 19:12:28;;;;;;;76.78;39.80;;;4.20;99.90;;;;;;20671994;28;20652;-44
2024/02/07 19:22:31;;;;;;;70.05;36.38;;;4.20;99.90;;;;;;20631324;28;20126;-53
2024/02/07 19:32:34;;;;;;;77.10;37.83;;;4.10;99.90;;;;;;20670476;28;20099;-42
2024/02/07 19:42:36;;;;;;;38.47;19.55;;;3.90;99.90;;;;;;20663944;28;20127;-44
2024/02/07 19:52:38;;;;;;;69.60;34.80;;;3.70;99.90;;;;;;20679569;28;20080;-42
2024/02/07 20:02:40;;;;;;;43.45;24.50;;;3.50;99.90;;;;;;20660630;28;20064;-42
2024/02/07 20:12:42;;;;;;;48.97;24.70;;;3.10;99.90;;;;;;20679060;28;20116;-42
2024/02/07 20:22:44;;;;;;;35.25;18.88;;;2.90;99.90;;;;;;20503345;28;21260;-42
2024/02/07 20:32:47;;;;;;;28.60;15.52;;;3.30;99.90;;;;;;20505742;28;20190;-41
2024/02/07 20:42:49;;;;;;;11.48;6.88;;;3.30;99.90;;;;;;20504291;28;20136;-42
2024/02/07 20:52:51;;;;;;;12.15;7.68;;;3.70;99.90;;;;;;20636367;28;20130;-40
2024/02/07 21:02:54;;;;;;;15.35;8.85;;;3.90;99.90;;;;;;20677036;28;20080;-40
2024/02/07 21:12:59;;;;;;;14.10;7.78;;;4.10;99.90;;;;;;20656397;28;20088;-44
2024/02/07 21:23:01;;;;;;;65.88;32.53;;;3.90;99.90;;;;;;20676254;28;20173;-42
2024/02/07 21:33:02;;;;;;;73.20;35.55;;;3.40;99.90;;;;;;20673562;28;20465;-41
2024/02/07 21:43:04;;;;;;;81.80;38.00;;;3.40;99.90;;;;;;20654135;28;20118;-42
2024/02/07 21:53:06;;;;;;;75.55;35.42;;;3.30;99.90;;;;;;20670569;28;20122;-47
2024/02/07 22:03:08;;;;;;;62.33;31.98;;;3.20;99.90;;;;;;20671665;28;20045;-43
2024/02/07 22:13:10;;;;;;;55.92;29.05;;;3.20;99.90;;;;;;20629858;28;20063;-41
2024/02/07 22:23:12;;;;;;;65.60;31.92;;;3.30;99.90;;;;;;20665574;28;20158;-42
2024/02/07 22:33:14;;;;;;;85.82;39.65;;;3.30;99.90;;;;;;20670596;28;20580;-42
2024/02/07 22:43:15;;;;;;;84.00;39.00;;;3.20;99.90;;;;;;20668963;28;20154;-42
2024/02/07 22:53:17;;;;;;;96.28;40.92;;;3.20;99.90;;;;;;20667894;28;20099;-43
2024/02/07 23:03:21;;;;;;;97.60;43.58;;;3.30;99.90;;;;;;20669731;28;20065;-52
2024/02/07 23:13:23;;;;;;;86.30;42.92;;;3.40;99.90;;;;;;20676885;28;20079;-42
2024/02/07 23:23:24;;;;;;;123.28;49.03;;;3.40;99.90;;;;;;20680877;28;20142;-43
2024/02/07 23:33:26;;;;;;;85.88;39.47;;;3.40;99.90;;;;;;20682769;28;20500;-41
2024/02/07 23:43:28;;;;;;;84.05;38.88;;;3.30;99.90;;;;;;20664028;28;20173;-47
2024/02/07 23:53:30;;;;;;;70.53;33.90;;;3.30;99.90;;;;;;20683578;28;20154;-45
